createdAt,value
2019-01-27T00:00:50.318Z,100.0
2019-01-27T00:02:50.428Z,100.0
2019-01-27T00:04:49.869Z,100.0
2019-01-27T00:06:50.245Z,100.0
2019-01-27T00:08:50.337Z,100.0
2019-01-27T00:10:50.389Z,100.0
2019-01-27T00:12:50.415Z,100.0
2019-01-27T00:14:50.484Z,100.0
2019-01-27T00:16:50.685Z,100.0
2019-01-27T00:18:49.825Z,100.0
2019-01-27T00:20:49.941Z,100.0
2019-01-27T00:22:49.954Z,100.0
2019-01-27T00:24:50.091Z,100.0
2019-01-27T00:26:50.369Z,100.0
2019-01-27T00:28:50.414Z,100.0
2019-01-27T00:30:50.436Z,100.0
2019-01-27T00:32:50.444Z,100.0
2019-01-27T00:34:50.770Z,100.0
2019-01-27T00:36:50.168Z,100.0
2019-01-27T00:38:50.229Z,100.0
2019-01-27T00:40:50.313Z,100.0
2019-01-27T00:42:50.340Z,100.0
2019-01-27T00:44:50.325Z,100.0
2019-01-27T00:46:50.593Z,100.0
2019-01-27T00:48:50.642Z,100.0
2019-01-27T00:50:50.732Z,100.0
2019-01-27T00:52:49.757Z,100.0
2019-01-27T00:54:49.818Z,100.0
2019-01-27T00:56:50.149Z,100.0
2019-01-27T00:58:50.279Z,100.0
2019-01-27T01:00:50.371Z,100.0
2019-01-27T01:02:50.449Z,100.0
2019-01-27T01:04:49.984Z,100.0
2019-01-27T01:06:50.257Z,100.0
2019-01-27T01:08:50.310Z,100.0
2019-01-27T01:10:50.353Z,100.0
2019-01-27T01:12:50.699Z,100.0
2019-01-27T01:14:49.863Z,100.0
2019-01-27T01:16:50.250Z,100.0
2019-01-27T01:18:50.236Z,100.0
2019-01-27T01:20:50.315Z,100.0
2019-01-27T01:22:50.423Z,100.0
2019-01-27T01:24:50.494Z,100.0
2019-01-27T01:26:49.923Z,100.0
2019-01-27T01:28:50.223Z,100.0
2019-01-27T01:30:50.239Z,100.0
2019-01-27T01:32:50.258Z,100.0
2019-01-27T01:34:50.702Z,100.0
2019-01-27T01:36:49.931Z,100.0
2019-01-27T01:38:50.035Z,100.0
2019-01-27T01:40:50.124Z,100.0
2019-01-27T01:42:50.233Z,100.0
2019-01-27T01:44:50.350Z,100.0
2019-01-27T01:46:50.720Z,100.0
2019-01-27T01:48:50.744Z,100.0
2019-01-27T01:50:49.855Z,100.0
2019-01-27T01:52:50.005Z,100.0
2019-01-27T01:54:50.075Z,100.0
2019-01-27T01:56:50.243Z,100.0
2019-01-27T01:58:50.289Z,100.0
2019-01-27T02:00:50.395Z,100.0
2019-01-27T02:02:50.508Z,100.0
2019-01-27T02:04:49.914Z,100.0
2019-01-27T02:06:50.273Z,100.0
2019-01-27T02:08:50.293Z,100.0
2019-01-27T02:10:50.373Z,100.0
2019-01-27T02:12:50.605Z,100.0
2019-01-27T02:14:50.714Z,100.0
2019-01-27T02:16:49.864Z,100.0
2019-01-27T02:18:50.024Z,100.0
2019-01-27T02:20:50.115Z,100.0
2019-01-27T02:22:50.152Z,100.0
2019-01-27T02:24:50.155Z,100.0
2019-01-27T02:26:50.401Z,100.0
2019-01-27T02:28:50.473Z,100.0
2019-01-27T02:30:50.508Z,100.0
2019-01-27T02:32:50.520Z,100.0
2019-01-27T02:34:49.803Z,100.0
2019-01-27T02:36:50.122Z,100.0
2019-01-27T02:38:50.230Z,100.0
2019-01-27T02:40:50.308Z,99.9
2019-01-27T02:42:50.289Z,99.9
2019-01-27T02:44:50.272Z,99.5
2019-01-27T02:46:50.462Z,99.0
2019-01-27T02:48:50.508Z,99.1
2019-01-27T02:50:50.469Z,99.1
2019-01-27T02:52:50.475Z,98.2
2019-01-27T02:54:50.433Z,98.2
2019-01-27T02:56:50.620Z,98.7
2019-01-27T02:58:50.593Z,98.4
2019-01-27T03:00:50.634Z,98.5
2019-01-27T03:02:50.731Z,98.5
2019-01-27T03:04:50.252Z,98.6
2019-01-27T03:06:50.506Z,98.8
2019-01-27T03:08:50.595Z,98.4
2019-01-27T03:10:50.631Z,98.6
2019-01-27T03:12:50.729Z,98.4
2019-01-27T03:14:49.809Z,98.9
2019-01-27T03:16:50.112Z,98.9
2019-01-27T03:18:50.204Z,98.9
2019-01-27T03:20:50.279Z,98.9
2019-01-27T03:22:50.355Z,99.0
2019-01-27T03:24:50.414Z,98.8
2019-01-27T03:26:50.677Z,98.9
2019-01-27T03:28:49.894Z,98.6
2019-01-27T03:30:50.127Z,98.6
2019-01-27T03:32:50.273Z,98.8
2019-01-27T03:34:50.563Z,98.5
2019-01-27T03:36:49.802Z,99.0
2019-01-27T03:38:49.920Z,99.3
2019-01-27T03:40:50.043Z,99.2
2019-01-27T03:42:50.158Z,99.1
2019-01-27T03:44:50.276Z,99.2
2019-01-27T03:46:50.444Z,98.6
2019-01-27T03:48:50.551Z,99.2
2019-01-27T03:50:50.568Z,99.1
2019-01-27T03:52:50.695Z,98.8
2019-01-27T03:54:50.750Z,98.6
2019-01-27T03:56:50.081Z,98.7
2019-01-27T03:58:50.145Z,98.8
2019-01-27T04:00:50.196Z,98.9
2019-01-27T04:02:50.358Z,98.6
2019-01-27T04:04:49.788Z,98.7
2019-01-27T04:06:50.157Z,98.7
2019-01-27T04:08:50.198Z,98.7
2019-01-27T04:10:50.279Z,99.0
2019-01-27T04:12:50.330Z,99.0
2019-01-27T04:14:50.377Z,99.1
2019-01-27T04:16:50.627Z,99.4
2019-01-27T04:18:50.645Z,98.8
2019-01-27T04:20:50.611Z,98.4
2019-01-27T04:22:50.646Z,98.8
2019-01-27T04:24:49.805Z,98.7
2019-01-27T04:26:50.022Z,99.0
2019-01-27T04:28:50.148Z,98.8
2019-01-27T04:30:50.214Z,98.5
2019-01-27T04:32:50.330Z,98.5
2019-01-27T04:34:50.706Z,98.7
2019-01-27T04:36:50.090Z,98.6
2019-01-27T04:38:50.206Z,98.1
2019-01-27T04:40:50.271Z,98.2
2019-01-27T04:42:50.453Z,97.9
2019-01-27T04:44:50.593Z,98.3
2019-01-27T04:46:49.975Z,97.2
2019-01-27T04:48:50.140Z,97.5
2019-01-27T04:50:50.171Z,97.6
2019-01-27T04:52:50.328Z,97.7
2019-01-27T04:54:50.417Z,97.4
2019-01-27T04:56:50.750Z,97.9
2019-01-27T04:58:49.859Z,98.3
2019-01-27T05:00:50.072Z,97.5
2019-01-27T05:02:50.134Z,97.6
2019-01-27T05:04:50.530Z,97.5
2019-01-27T05:06:49.802Z,97.3
2019-01-27T05:08:49.924Z,97.3
2019-01-27T05:10:50.079Z,97.0
2019-01-27T05:12:50.171Z,97.4
2019-01-27T05:14:50.220Z,97.9
2019-01-27T05:16:50.407Z,98.0
2019-01-27T05:18:50.537Z,98.0
2019-01-27T05:20:50.607Z,98.1
2019-01-27T05:22:50.765Z,98.5
2019-01-27T05:24:49.764Z,98.5
2019-01-27T05:26:50.563Z,98.5
2019-01-27T05:28:50.633Z,98.2
2019-01-27T05:30:50.729Z,97.5
2019-01-27T05:32:49.827Z,97.3
2019-01-27T05:34:50.239Z,97.3
2019-01-27T05:36:50.474Z,97.4
2019-01-27T05:38:50.429Z,96.9
2019-01-27T05:40:50.494Z,96.9
2019-01-27T05:42:50.498Z,96.9
2019-01-27T05:44:50.552Z,96.5
2019-01-27T05:46:50.751Z,97.1
2019-01-27T05:48:49.881Z,96.9
2019-01-27T05:50:49.921Z,96.7
2019-01-27T05:52:49.999Z,97.2
2019-01-27T05:54:50.061Z,97.5
2019-01-27T05:56:57.146Z,96.7
2019-01-27T05:58:50.126Z,97.1
2019-01-27T06:00:50.243Z,96.9
2019-01-27T06:02:50.274Z,96.9
2019-01-27T06:04:50.647Z,97.2
2019-01-27T06:06:49.966Z,96.4
2019-01-27T06:08:50.005Z,96.8
2019-01-27T06:10:50.046Z,96.9
2019-01-27T06:12:50.058Z,96.3
2019-01-27T06:14:50.098Z,96.5
2019-01-27T06:16:50.390Z,96.2
2019-01-27T06:18:50.506Z,96.1
2019-01-27T06:20:50.663Z,96.6
2019-01-27T06:22:50.778Z,96.4
2019-01-27T06:24:49.915Z,96.1
2019-01-27T06:26:50.275Z,96.1
2019-01-27T06:28:50.478Z,96.1
2019-01-27T06:30:50.496Z,95.6
2019-01-27T06:32:50.494Z,95.5
2019-01-27T06:34:49.889Z,95.7
2019-01-27T06:36:50.231Z,95.0
2019-01-27T06:38:50.309Z,95.5
2019-01-27T06:40:50.361Z,95.6
2019-01-27T06:42:50.343Z,95.4
2019-01-27T06:44:50.389Z,95.6
2019-01-27T06:46:50.660Z,95.4
2019-01-27T06:48:50.633Z,95.4
2019-01-27T06:50:49.786Z,95.0
2019-01-27T06:52:49.918Z,95.4
2019-01-27T06:54:49.949Z,95.4
2019-01-27T06:56:50.284Z,95.7
2019-01-27T06:58:50.276Z,96.3
2019-01-27T07:00:50.434Z,96.9
2019-01-27T07:02:49.943Z,96.6
2019-01-27T07:04:50.456Z,97.5
2019-01-27T07:06:50.649Z,97.7
2019-01-27T07:08:50.725Z,98.7
2019-01-27T07:10:49.829Z,99.2
2019-01-27T07:12:49.897Z,99.2
2019-01-27T07:14:50.160Z,99.5
2019-01-27T07:16:50.322Z,99.3
2019-01-27T07:18:50.349Z,99.5
2019-01-27T07:20:50.426Z,99.5
2019-01-27T07:22:50.142Z,99.4
2019-01-27T07:24:50.187Z,99.6
2019-01-27T07:26:50.464Z,99.8
2019-01-27T07:28:49.799Z,99.5
2019-01-27T07:30:49.772Z,99.3
2019-01-27T07:32:50.719Z,99.9
2019-01-27T07:34:50.261Z,100.0
2019-01-27T07:36:50.540Z,100.0
2019-01-27T07:38:50.607Z,99.8
2019-01-27T07:40:50.631Z,100.0
2019-01-27T07:42:50.674Z,100.0
2019-01-27T07:44:49.806Z,100.0
2019-01-27T07:46:50.028Z,100.0
2019-01-27T07:48:50.144Z,100.0
2019-01-27T07:50:50.200Z,100.0
2019-01-27T07:52:50.267Z,100.0
2019-01-27T07:54:50.290Z,100.0
2019-01-27T07:56:50.638Z,100.0
2019-01-27T07:58:50.661Z,100.0
2019-01-27T08:00:49.774Z,100.0
2019-01-27T08:02:49.911Z,100.0
2019-01-27T08:04:50.259Z,100.0
2019-01-27T08:06:49.870Z,100.0
2019-01-27T08:08:51.574Z,100.0
2019-01-27T08:10:50.678Z,100.0
2019-01-27T08:12:49.918Z,100.0
2019-01-27T08:14:49.966Z,100.0
2019-01-27T08:16:50.281Z,100.0
2019-01-27T08:18:50.412Z,100.0
2019-01-27T08:20:50.626Z,100.0
2019-01-27T08:22:50.776Z,100.0
2019-01-27T08:24:49.979Z,100.0
2019-01-27T08:26:50.340Z,100.0
2019-01-27T08:28:50.381Z,100.0
2019-01-27T08:30:50.515Z,100.0
2019-01-27T08:32:50.675Z,100.0
2019-01-27T08:34:50.075Z,100.0
2019-01-27T08:36:50.356Z,100.0
2019-01-27T08:38:50.399Z,100.0
2019-01-27T08:40:50.571Z,100.0
2019-01-27T08:42:50.718Z,100.0
2019-01-27T08:44:49.811Z,100.0
2019-01-27T08:46:50.046Z,99.9
2019-01-27T08:48:50.030Z,99.3
2019-01-27T08:50:50.081Z,98.7
2019-01-27T08:52:50.104Z,98.7
2019-01-27T08:54:50.215Z,98.6
2019-01-27T08:56:50.523Z,98.3
2019-01-27T08:58:50.560Z,98.3
2019-01-27T09:00:50.752Z,98.1
2019-01-27T09:02:49.853Z,97.7
2019-01-27T09:04:50.465Z,97.0
2019-01-27T09:06:50.769Z,96.9
2019-01-27T09:08:49.824Z,96.0
2019-01-27T09:10:50.009Z,96.0
2019-01-27T09:12:49.810Z,96.0
2019-01-27T09:14:49.905Z,95.9
2019-01-27T09:16:50.302Z,95.9
2019-01-27T09:18:50.426Z,94.6
2019-01-27T09:20:50.420Z,94.6
2019-01-27T09:22:50.485Z,94.7
2019-01-27T09:24:50.542Z,94.2
2019-01-27T09:26:49.790Z,93.6
2019-01-27T09:28:50.775Z,93.0
2019-01-27T09:30:50.244Z,92.8
2019-01-27T09:32:50.288Z,93.5
2019-01-27T09:34:49.846Z,93.9
2019-01-27T09:36:49.931Z,93.6
2019-01-27T09:38:50.487Z,94.2
2019-01-27T09:40:50.419Z,94.1
2019-01-27T09:42:50.482Z,93.4
2019-01-27T09:44:50.657Z,93.0
2019-01-27T09:46:49.931Z,93.3
2019-01-27T09:48:50.186Z,93.6
2019-01-27T09:50:50.429Z,93.1
2019-01-27T09:52:50.653Z,93.1
2019-01-27T09:54:50.739Z,93.0
2019-01-27T09:56:50.088Z,93.2
2019-01-27T09:58:50.088Z,92.7
2019-01-27T10:00:50.737Z,92.8
2019-01-27T10:02:49.786Z,92.7
2019-01-27T10:04:50.391Z,92.7
2019-01-27T10:06:50.500Z,92.2
2019-01-27T10:08:50.517Z,91.9
2019-01-27T10:10:50.504Z,91.4
2019-01-27T10:12:50.537Z,91.0
2019-01-27T10:14:50.638Z,91.0
2019-01-27T10:16:49.782Z,90.1
2019-01-27T10:18:49.792Z,89.7
2019-01-27T10:20:49.904Z,90.7
2019-01-27T10:22:50.014Z,89.9
2019-01-27T10:24:50.192Z,90.3
2019-01-27T10:26:50.375Z,89.0
2019-01-27T10:28:50.439Z,89.3
2019-01-27T10:30:50.415Z,87.7
2019-01-27T10:32:50.766Z,89.0
2019-01-27T10:34:50.377Z,87.8
2019-01-27T10:36:50.627Z,87.8
2019-01-27T10:38:50.607Z,86.7
2019-01-27T10:40:50.651Z,87.3
2019-01-27T10:42:49.772Z,88.1
2019-01-27T10:44:49.764Z,86.6
2019-01-27T10:46:50.037Z,87.1
2019-01-27T10:48:50.003Z,87.2
2019-01-27T10:50:50.227Z,86.0
2019-01-27T10:52:50.336Z,86.4
2019-01-27T10:54:50.388Z,85.4
2019-01-27T10:56:50.693Z,84.7
2019-01-27T10:58:50.668Z,83.8
2019-01-27T11:00:50.753Z,82.3
2019-01-27T11:02:50.024Z,80.9
2019-01-27T11:04:50.521Z,80.9
2019-01-27T11:06:50.028Z,81.0
2019-01-27T11:08:50.238Z,79.5
2019-01-27T11:10:50.263Z,78.2
2019-01-27T11:12:50.342Z,77.1
2019-01-27T11:14:50.470Z,71
2019-01-27T11:16:50.665Z,71
2019-01-27T11:18:50.702Z,71
2019-01-27T11:20:50.338Z,71
2019-01-27T11:22:50.462Z,71
2019-01-27T11:24:50.148Z,71
2019-01-27T11:26:49.808Z,81.0
2019-01-27T11:28:49.921Z,81.4
2019-01-27T11:30:50.003Z,81.4
2019-01-27T11:32:50.280Z,83.0
2019-01-27T11:34:50.756Z,82.0
2019-01-27T11:36:50.837Z,81.2
2019-01-27T11:38:50.658Z,80.8
2019-01-27T11:40:50.539Z,79.3
2019-01-27T11:42:50.744Z,79.6
2019-01-27T11:44:50.257Z,71
2019-01-27T11:46:50.919Z,72
2019-01-27T11:48:50.192Z,72
2019-01-27T11:50:50.471Z,71
2019-01-27T11:52:50.657Z,71
2019-01-27T11:54:50.883Z,71
2019-01-27T11:56:50.397Z,71
2019-01-27T11:58:50.616Z,71
2019-01-27T12:00:50.818Z,71
2019-01-27T12:02:50.080Z,71
2019-01-27T12:04:50.346Z,70
2019-01-27T12:06:50.568Z,70
2019-01-27T12:08:50.708Z,71
2019-01-27T12:10:50.730Z,71
2019-01-27T12:12:49.928Z,75.1
2019-01-27T12:14:50.021Z,75.4
2019-01-27T12:16:50.236Z,75.6
2019-01-27T12:18:50.305Z,76.2
2019-01-27T12:20:50.304Z,77.8
2019-01-27T12:22:50.421Z,75.5
2019-01-27T12:24:50.688Z,76.6
2019-01-27T12:26:50.213Z,76.0
2019-01-27T12:28:50.495Z,75.0
2019-01-27T12:30:50.668Z,73.2
2019-01-27T12:32:50.871Z,68
2019-01-27T12:34:50.549Z,68
2019-01-27T12:36:49.946Z,68
2019-01-27T12:38:50.293Z,68
2019-01-27T12:40:50.543Z,68
2019-01-27T12:42:50.869Z,68
2019-01-27T12:44:50.148Z,68
2019-01-27T12:46:50.518Z,72.5
2019-01-27T12:48:50.721Z,72.7
2019-01-27T12:50:50.030Z,74.2
2019-01-27T12:52:50.284Z,73.4
2019-01-27T12:54:50.479Z,73.5
2019-01-27T12:56:49.949Z,74.4
2019-01-27T12:58:50.151Z,74.9
2019-01-27T13:00:50.125Z,74.3
2019-01-27T13:02:50.190Z,74.2
2019-01-27T13:04:50.508Z,74.9
2019-01-27T13:06:50.610Z,75.4
2019-01-27T13:08:50.600Z,75.1
2019-01-27T13:10:50.572Z,75.7
2019-01-27T13:12:50.804Z,75.9
2019-01-27T13:14:50.025Z,75.9
2019-01-27T13:16:50.442Z,76.1
2019-01-27T13:18:50.560Z,74.4
2019-01-27T13:20:50.732Z,75.4
2019-01-27T13:22:49.803Z,75.3
2019-01-27T13:24:50.143Z,74.9
2019-01-27T13:26:50.564Z,76.0
2019-01-27T13:28:50.771Z,74.4
2019-01-27T13:30:49.985Z,74.0
2019-01-27T13:32:50.255Z,73.1
2019-01-27T13:34:49.933Z,72.4
2019-01-27T13:36:50.486Z,72.2
2019-01-27T13:38:51.705Z,73.3
2019-01-27T13:40:51.217Z,73.8
2019-01-27T13:42:50.323Z,74.8
2019-01-27T13:44:50.341Z,74.3
2019-01-27T13:46:50.586Z,74.3
2019-01-27T13:48:50.878Z,74.3
2019-01-27T13:50:50.280Z,69.4
2019-01-27T13:52:50.467Z,66
2019-01-27T13:54:50.670Z,66
2019-01-27T13:56:50.211Z,71.9
2019-01-27T13:58:50.244Z,74.1
2019-01-27T14:00:50.261Z,74.5
2019-01-27T14:02:50.249Z,75.2
2019-01-27T14:04:50.655Z,76.0
2019-01-27T14:06:49.982Z,75.4
2019-01-27T14:08:50.161Z,75.8
2019-01-27T14:10:50.371Z,75.5
2019-01-27T14:12:50.569Z,75.0
2019-01-27T14:14:50.767Z,75.3
2019-01-27T14:16:50.305Z,75.3
2019-01-27T14:18:50.506Z,75.3
2019-01-27T14:20:50.765Z,75.8
2019-01-27T14:22:49.991Z,74.7
2019-01-27T14:24:50.252Z,74.7
2019-01-27T14:26:50.597Z,74.1
2019-01-27T14:28:50.834Z,73.5
2019-01-27T14:30:50.086Z,72.5
2019-01-27T14:32:50.346Z,72.8
2019-01-27T14:34:49.978Z,73.6
2019-01-27T14:36:50.103Z,73.2
2019-01-27T14:38:50.169Z,73.2
2019-01-27T14:40:50.228Z,74.3
2019-01-27T14:42:50.275Z,74.9
2019-01-27T14:44:50.333Z,74.4
2019-01-27T14:46:50.655Z,75.2
2019-01-27T14:48:50.695Z,75.3
2019-01-27T14:50:49.913Z,76.4
2019-01-27T14:52:50.038Z,76.7
2019-01-27T14:54:50.030Z,77.1
2019-01-27T14:56:50.146Z,77.9
2019-01-27T14:58:50.238Z,77.6
2019-01-27T15:00:50.295Z,78.3
2019-01-27T15:02:50.327Z,78.0
2019-01-27T15:04:50.797Z,79.1
2019-01-27T15:06:50.175Z,78.8
2019-01-27T15:08:50.174Z,77.3
2019-01-27T15:10:50.337Z,77.3
2019-01-27T15:12:50.387Z,77.0
2019-01-27T15:14:50.417Z,77.6
2019-01-27T15:16:50.679Z,77.6
2019-01-27T15:18:50.745Z,78.6
2019-01-27T15:20:50.791Z,78.3
2019-01-27T15:22:49.875Z,79.0
2019-01-27T15:24:49.982Z,78.5
2019-01-27T15:26:50.365Z,79.0
2019-01-27T15:28:50.523Z,78.8
2019-01-27T15:30:50.602Z,79.7
2019-01-27T15:32:50.664Z,79.7
2019-01-27T15:34:49.988Z,79.7
2019-01-27T15:36:50.127Z,79.6
2019-01-27T15:38:50.127Z,79.8
2019-01-27T15:40:50.178Z,80.9
2019-01-27T15:42:50.253Z,80.9
2019-01-27T15:44:50.400Z,81.0
2019-01-27T15:46:50.731Z,82.1
2019-01-27T15:48:49.810Z,82.5
2019-01-27T15:50:49.910Z,82.5
2019-01-27T15:52:49.955Z,82.8
2019-01-27T15:54:50.102Z,82.8
2019-01-27T15:56:50.296Z,82.2
2019-01-27T15:58:50.313Z,83.4
2019-01-27T16:00:50.341Z,83.8
2019-01-27T16:02:50.330Z,84.1
2019-01-27T16:04:49.827Z,83.4
2019-01-27T16:06:50.010Z,83.2
2019-01-27T16:08:50.052Z,83.7
2019-01-27T16:10:50.052Z,84.6
2019-01-27T16:12:50.047Z,85.0
2019-01-27T16:14:50.111Z,84.5
2019-01-27T16:16:50.361Z,84.3
2019-01-27T16:18:50.377Z,84.6
2019-01-27T16:20:50.478Z,83.9
2019-01-27T16:22:50.496Z,84.0
2019-01-27T16:24:50.495Z,84.2
2019-01-27T16:26:49.848Z,83.9
2019-01-27T16:28:49.909Z,84.0
2019-01-27T16:30:49.999Z,84.8
2019-01-27T16:32:50.494Z,84.3
2019-01-27T16:34:49.881Z,83.8
2019-01-27T16:36:50.296Z,84.1
2019-01-27T16:38:50.502Z,84.9
2019-01-27T16:40:50.659Z,85.3
2019-01-27T16:42:50.795Z,83.8
2019-01-27T16:44:49.827Z,84.1
2019-01-27T16:46:50.058Z,84.4
2019-01-27T16:48:50.084Z,84.5
2019-01-27T16:50:50.097Z,83.6
2019-01-27T16:52:50.178Z,83.6
2019-01-27T16:54:50.200Z,84.5
2019-01-27T16:56:50.406Z,84.4
2019-01-27T16:58:50.543Z,83.8
2019-01-27T17:00:50.592Z,83.6
2019-01-27T17:02:50.697Z,84.2
2019-01-27T17:04:50.092Z,84.2
2019-01-27T17:06:50.308Z,83.4
2019-01-27T17:08:50.375Z,83.7
2019-01-27T17:10:50.366Z,84.1
2019-01-27T17:12:50.404Z,84.0
2019-01-27T17:14:50.487Z,84.4
2019-01-27T17:16:50.594Z,85.4
2019-01-27T17:18:50.664Z,85.2
2019-01-27T17:20:50.628Z,85.8
2019-01-27T17:22:50.669Z,85.5
2019-01-27T17:24:50.771Z,85.8
2019-01-27T17:26:51.701Z,85.8
2019-01-27T17:28:50.722Z,85.8
2019-01-27T17:30:50.733Z,85.8
2019-01-27T17:32:50.755Z,86.2
2019-01-27T17:34:50.253Z,86.0
2019-01-27T17:36:50.397Z,86.2
2019-01-27T17:38:50.448Z,86.4
2019-01-27T17:40:50.413Z,87.3
2019-01-27T17:42:50.348Z,87.8
2019-01-27T17:44:50.401Z,86.9
2019-01-27T17:46:49.776Z,87.8
2019-01-27T17:48:49.842Z,87.3
2019-01-27T17:50:49.928Z,87.3
2019-01-27T17:52:49.995Z,87.6
2019-01-27T17:54:50.010Z,87.7
2019-01-27T17:56:50.377Z,87.8
2019-01-27T17:58:54.891Z,88.7
2019-01-27T18:00:50.029Z,88.5
2019-01-27T18:02:50.078Z,88.8
2019-01-27T18:04:50.312Z,88.2
2019-01-27T18:06:50.548Z,88.2
2019-01-27T18:08:50.541Z,88.0
2019-01-27T18:10:50.684Z,87.5
2019-01-27T18:12:49.799Z,87.6
2019-01-27T18:14:49.812Z,87.9
2019-01-27T18:16:50.238Z,87.9
2019-01-27T18:18:50.232Z,87.5
2019-01-27T18:20:50.303Z,87.1
2019-01-27T18:22:50.423Z,87.3
2019-01-27T18:24:50.511Z,87.6
2019-01-27T18:26:49.861Z,87.9
2019-01-27T18:28:52.347Z,87.2
2019-01-27T18:30:50.419Z,87.8
2019-01-27T18:32:50.598Z,87.7
2019-01-27T18:34:50.156Z,87.6
2019-01-27T18:36:50.550Z,88.1
2019-01-27T18:38:50.698Z,89.1
2019-01-27T18:40:50.814Z,89.1
2019-01-27T18:42:50.019Z,89.4
2019-01-27T18:44:50.564Z,89.5
2019-01-27T18:46:50.036Z,89.8
2019-01-27T18:48:50.176Z,89.8
2019-01-27T18:50:50.305Z,89.4
2019-01-27T18:52:50.406Z,89.9
2019-01-27T18:54:50.534Z,90.5
2019-01-27T18:56:49.907Z,90.6
2019-01-27T18:58:50.116Z,90.9
2019-01-27T19:00:50.325Z,90.7
2019-01-27T19:02:50.481Z,90.7
2019-01-27T19:04:49.959Z,91.1
2019-01-27T19:06:50.089Z,91.3
2019-01-27T19:08:50.131Z,91.1
2019-01-27T19:10:50.260Z,91.1
2019-01-27T19:12:50.357Z,91.2
2019-01-27T19:14:50.492Z,91.2
2019-01-27T19:16:49.881Z,91.3
2019-01-27T19:18:49.942Z,91.3
2019-01-27T19:20:50.105Z,90.4
2019-01-27T19:22:50.250Z,90.4
2019-01-27T19:24:50.367Z,90.2
2019-01-27T19:26:50.623Z,90.8
2019-01-27T19:28:49.812Z,90.5
2019-01-27T19:30:50.650Z,90.7
2019-01-27T19:32:49.814Z,90.2
2019-01-27T19:34:50.423Z,90.0
2019-01-27T19:36:50.433Z,90.2
2019-01-27T19:38:50.585Z,90.0
2019-01-27T19:40:50.549Z,89.7
2019-01-27T19:42:50.197Z,89.6
2019-01-27T19:44:50.385Z,89.3
2019-01-27T19:46:50.795Z,89.5
2019-01-27T19:48:49.860Z,89.9
2019-01-27T19:50:50.124Z,89.7
2019-01-27T19:52:50.016Z,89.9
2019-01-27T19:54:50.103Z,89.5
2019-01-27T19:56:50.467Z,89.2
2019-01-27T19:58:50.508Z,89.0
2019-01-27T20:00:50.604Z,89.2
2019-01-27T20:02:50.441Z,89.0
2019-01-27T20:04:50.773Z,89.6
2019-01-27T20:06:50.241Z,89.7
2019-01-27T20:08:50.275Z,89.1
2019-01-27T20:10:50.403Z,88.9
2019-01-27T20:12:50.460Z,88.8
2019-01-27T20:14:50.649Z,89.5
2019-01-27T20:16:50.039Z,89.1
2019-01-27T20:18:50.174Z,89.4
2019-01-27T20:20:50.281Z,89.5
2019-01-27T20:22:50.425Z,89.7
2019-01-27T20:24:50.521Z,89.9
2019-01-27T20:26:49.802Z,89.8
2019-01-27T20:28:50.655Z,90.1
2019-01-27T20:30:50.651Z,90.0
2019-01-27T20:32:49.792Z,89.9
2019-01-27T20:34:50.445Z,89.9
2019-01-27T20:36:50.676Z,90.1
2019-01-27T20:38:49.783Z,90.5
2019-01-27T20:40:49.954Z,90.6
2019-01-27T20:42:50.035Z,90.5
2019-01-27T20:44:50.545Z,90.7
2019-01-27T20:46:50.065Z,90.7
2019-01-27T20:48:50.146Z,90.7
2019-01-27T20:50:50.012Z,90.4
2019-01-27T20:52:50.120Z,90.8
2019-01-27T20:54:50.782Z,90.8
2019-01-27T20:56:50.051Z,91.3
2019-01-27T20:58:50.775Z,91.3
2019-01-27T21:00:50.781Z,91.1
2019-01-27T21:02:49.889Z,91.4
2019-01-27T21:04:50.398Z,91.4
2019-01-27T21:06:50.591Z,91.2
2019-01-27T21:08:50.714Z,90.7
2019-01-27T21:10:49.862Z,90.7
2019-01-27T21:12:49.977Z,90.6
2019-01-27T21:14:50.022Z,90.7
2019-01-27T21:16:50.328Z,90.9
2019-01-27T21:18:50.418Z,90.8
2019-01-27T21:20:54.248Z,91.4
2019-01-27T21:22:50.373Z,91.5
2019-01-27T21:24:50.415Z,91.6
2019-01-27T21:26:49.895Z,91.8
2019-01-27T21:28:49.972Z,92.1
2019-01-27T21:30:50.095Z,92.4
2019-01-27T21:32:50.192Z,92.4
2019-01-27T21:34:50.420Z,92.5
2019-01-27T21:36:50.805Z,92.8
2019-01-27T21:38:49.995Z,93.3
2019-01-27T21:40:50.036Z,93.4
2019-01-27T21:42:50.225Z,93.4
2019-01-27T21:44:50.375Z,93.8
2019-01-27T21:46:50.668Z,93.9
2019-01-27T21:48:49.834Z,94.2
2019-01-27T21:50:49.924Z,94.5
2019-01-27T21:52:50.023Z,94.6
2019-01-27T21:54:50.092Z,94.6
2019-01-27T21:56:50.368Z,94.6
2019-01-27T21:58:50.436Z,94.7
2019-01-27T22:00:50.484Z,94.7
2019-01-27T22:02:50.662Z,94.9
2019-01-27T22:04:50.033Z,95.1
2019-01-27T22:06:50.341Z,95.3
2019-01-27T22:08:50.435Z,95.4
2019-01-27T22:10:50.552Z,95.6
2019-01-27T22:12:50.657Z,95.8
2019-01-27T22:14:49.842Z,96.0
2019-01-27T22:16:50.213Z,96.4
2019-01-27T22:18:50.276Z,96.6
2019-01-27T22:20:50.423Z,96.9
2019-01-27T22:22:50.529Z,97.2
2019-01-27T22:24:50.653Z,98.2
2019-01-27T22:26:50.014Z,99.2
2019-01-27T22:28:50.021Z,100.0
2019-01-27T22:30:50.044Z,100.0
2019-01-27T22:32:50.089Z,100.0
2019-01-27T22:34:50.358Z,100.0
2019-01-27T22:36:50.712Z,100.0
2019-01-27T22:38:49.799Z,100.0
2019-01-27T22:40:49.919Z,100.0
2019-01-27T22:42:50.020Z,100.0
2019-01-27T22:44:50.111Z,100.0
2019-01-27T22:46:50.424Z,100.0
2019-01-27T22:48:50.508Z,100.0
2019-01-27T22:50:50.527Z,100.0
2019-01-27T22:52:50.591Z,100.0
2019-01-27T22:54:50.631Z,100.0
2019-01-27T22:56:50.075Z,100.0
2019-01-27T22:58:50.052Z,100.0
2019-01-27T23:00:50.061Z,100.0
2019-01-27T23:02:50.177Z,100.0
2019-01-27T23:04:50.601Z,100.0
2019-01-27T23:06:49.982Z,100.0
2019-01-27T23:08:49.977Z,100.0
2019-01-27T23:10:50.050Z,100.0
2019-01-27T23:12:50.040Z,100.0
2019-01-27T23:14:50.035Z,100.0
2019-01-27T23:16:50.144Z,100.0
2019-01-27T23:18:50.264Z,100.0
2019-01-27T23:20:50.308Z,100.0
2019-01-27T23:22:50.352Z,100.0
2019-01-27T23:24:50.348Z,99.0
2019-01-27T23:26:50.652Z,99.0
2019-01-27T23:28:50.651Z,99.0
2019-01-27T23:30:50.642Z,99.2
2019-01-27T23:32:50.653Z,98.1
2019-01-27T23:34:50.059Z,97.4
2019-01-27T23:36:50.261Z,97.3
2019-01-27T23:38:50.195Z,96.6
2019-01-27T23:40:50.183Z,95.2
2019-01-27T23:42:50.307Z,94.5
2019-01-27T23:44:50.308Z,94.9
2019-01-27T23:46:50.420Z,94.3
2019-01-27T23:48:50.424Z,94.4
2019-01-27T23:50:50.497Z,94.4
2019-01-27T23:52:50.624Z,94.6
2019-01-27T23:54:50.577Z,95.1
2019-01-27T23:56:49.930Z,95.4
2019-01-27T23:58:49.872Z,95.9
